« 定点 富山空港 2015/1/25 sun | トップページ | 日常 富山空港 2015/2/1 sun »

2015/01/29

雪がない 富山空港 2015/1/29 thu

あなたは こない~♪ 1月も終わろうとしているのに、平野部には雪がありません。こんなんで、イインカー。北陸新幹線開業まで44日。B787が見れなくなるまで44日。

RJNT 290100Z VRB02KT 9999 FEW030 SCT050 02/M07 Q1029

20150129_rjnt_00n351up

UPS104 PANC-RJBB N351UP B767-34AFER

青空の中、綺麗なコントレールを引いて飛び交っている

20150129_rjnt_01ja821a

ギアダウン前にインサイト

20150129_rjnt_02ja821a

20150129_rjnt_03ja821a

20150129_rjnt_04ja821a

ANA883 RJTT-RJNT JA821A B787-8

誰か木蓮の枝折ったかー?

20150129_rjnt_05ja970a

JA970A AW139 JCG

一昨日から釣人捜索で飛来している海保さん。毎日ご苦労様。防災も最初出てたけど、警察は一度も飛ばなかった。139T君は、何しとん?

20150129_rjnt_06ja259c

JA259C C172

こんな天気で福井からチョイとやってこれるから、やっぱり気候異変だな。

20150129_rjnt_07ja6768

JA6768 B412 富山県消防防災

20150129_rjnt_08ja6768

砺波方面のS&Rから帰還の模様

20150129_rjnt_09ja821a

ANA886 RJNT-RJTT JA821A B787-8

RJNT 290300Z VRB03KT 9999 FEW030 SCT/// 03/M07 Q1027

20150129_rjnt_10ja970a

JA970A AW139 JCG

へりも人間もお腹をいっぱいにして、捜索しながら新潟にお帰り。捜索は一旦中断やろな。

20150129_rjnt_11ja259c

JA259C C172

20150129_rjnt_12ja6768

JA6768 B412 富山県消防防災

20150129_rjnt_13ja15an

20150129_rjnt_14ja15an

20150129_rjnt_15ja15an

20150129_rjnt_16ja15an

ADO120 RJCC-RJNT JA15AN B737-781

RJNT 290500Z 32005KT 270V350 9999 FEW030 BKN045 BKN/// 03/M07 Q1027

20150129_rjnt_17ja602a

20150129_rjnt_18ja602a

20150129_rjnt_19ja602a

ANA885 RJTT-RJNT JA602A B767-381

20150129_rjnt_20ja15an

AIRDOが見れるのも、後58日

20150129_rjnt_21ja15an

ADO121 RJNT-RJCC JA15AN B737-781

20150129_rjnt_22ja6768

JA6768

20150129_rjnt_23ja602a

ANA888 RJNT-RJTT JA602A B767-381

RJNT 290700Z 05005KT 010V100 9999 FEW030 BKN/// 03/M06 Q1026

20150129_rjnt_24ja8569

ながーく見慣れたB6も3/28まで

20150129_rjnt_25ja8569

ANA887 RJTT-RJNT JA8569 B767-381

-2015/1/29 thu-----

RJTT-RJNT
ANA     /882 JA8669
ANA881/884 JA8342
ANA883/886 JA821A
ANA885/888 JA602A
ANA887/890 JA8569
ANA889/892 JA8578
ANA891       JA8360

RJCC-RJNT
ADO120/121 JA15AN

-2015/1/28 wed-----

RJTT-RJNT
ANA     /882 JA8568
ANA881/884 JA8669
ANA883/886 JA818A
ANA885/888 JA8674
ANA887/890 JA8670
ANA889/892 JA8342
ANA891       JA8669

RJCC-RJNT
ADO120/121 JA01AN

ZYTL-RJNT
CSN613/614

-2015/1/27 tue-----

RJTT-RJNT
ANA     /882 JA602A
ANA881/884 JA8971
ANA883/886 JA819A
ANA885/888 JA8322
ANA887/890 JA8579
ANA889/892 JA8578
ANA891       JA8669

RJCC-RJNT
ADO120/121 JA07AN

RKSI-RJNT
AAR128/127 HL7730

ZSPD-RJNT
CSH825/826 B-1968

-2015/1/26 mon-----

RJTT-RJNT
ANA     /882 JA8669
ANA881/884 JA8342
ANA883/886 JA824A
ANA885/888 JA8578
ANA887/890 JA8363
ANA889/892 JA8677
ANA891       JA602A

RJCC-RJNT
ADO120/121 JA15AN

RCTP-RJNT
CAL170/171 B-18609

|

« 定点 富山空港 2015/1/25 sun | トップページ | 日常 富山空港 2015/2/1 sun »

富山空港」カテゴリの記事

コメント

Ja-259cさん、ブログを拝見いただきありがとうございます。冬の富山?へようこそ。機上からの写真があれば、見てみたいですね。また富山へいらっしゃいませ。

投稿: G4 | 2015/01/31 06:21

Ja-259c です。天気が良いのでお邪魔しました。福井から40分 アルプスが大変綺麗でした。
ブログに載せて頂きありがとうございました。

投稿: | 2015/01/30 19:26

コメントを書く



(ウェブ上には掲載しません)


コメントは記事投稿者が公開するまで表示されません。



トラックバック


この記事へのトラックバック一覧です: 雪がない 富山空港 2015/1/29 thu:

« 定点 富山空港 2015/1/25 sun | トップページ | 日常 富山空港 2015/2/1 sun »